sensor_id;sensor_type;location;lat;lon;timestamp;P1;durP1;ratioP1;P2;durP2;ratioP2
18716;SDS011;9487;50.892;6.906;2024-01-16T00:00:22;12.90;;;9.00;;
18716;SDS011;9487;50.892;6.906;2024-01-16T00:02:50;12.83;;;8.40;;
18716;SDS011;9487;50.892;6.906;2024-01-16T00:05:17;13.67;;;9.03;;
18716;SDS011;9487;50.892;6.906;2024-01-16T00:07:44;16.03;;;9.77;;
18716;SDS011;9487;50.892;6.906;2024-01-16T00:10:11;14.20;;;9.00;;
18716;SDS011;9487;50.892;6.906;2024-01-16T00:12:37;13.03;;;9.30;;
18716;SDS011;9487;50.892;6.906;2024-01-16T00:15:05;15.47;;;9.13;;
18716;SDS011;9487;50.892;6.906;2024-01-16T00:17:33;13.17;;;8.73;;
18716;SDS011;9487;50.892;6.906;2024-01-16T00:20:01;13.07;;;8.10;;
18716;SDS011;9487;50.892;6.906;2024-01-16T00:22:30;11.83;;;7.77;;
18716;SDS011;9487;50.892;6.906;2024-01-16T00:24:56;11.70;;;7.83;;
18716;SDS011;9487;50.892;6.906;2024-01-16T00:27:24;12.40;;;7.90;;
18716;SDS011;9487;50.892;6.906;2024-01-16T00:29:51;14.50;;;8.87;;
18716;SDS011;9487;50.892;6.906;2024-01-16T00:32:18;13.27;;;8.23;;
18716;SDS011;9487;50.892;6.906;2024-01-16T00:34:45;15.77;;;8.30;;
18716;SDS011;9487;50.892;6.906;2024-01-16T00:37:13;13.03;;;7.87;;
18716;SDS011;9487;50.892;6.906;2024-01-16T00:39:40;10.93;;;8.03;;
18716;SDS011;9487;50.892;6.906;2024-01-16T00:42:06;16.53;;;8.13;;
18716;SDS011;9487;50.892;6.906;2024-01-16T00:44:33;12.97;;;8.10;;
18716;SDS011;9487;50.892;6.906;2024-01-16T00:47:00;12.03;;;7.63;;
18716;SDS011;9487;50.892;6.906;2024-01-16T00:49:27;15.73;;;8.67;;
18716;SDS011;9487;50.892;6.906;2024-01-16T00:51:53;12.00;;;8.40;;
18716;SDS011;9487;50.892;6.906;2024-01-16T00:54:21;15.40;;;8.77;;
18716;SDS011;9487;50.892;6.906;2024-01-16T00:56:48;13.43;;;8.60;;
18716;SDS011;9487;50.892;6.906;2024-01-16T00:59:17;14.30;;;8.63;;
18716;SDS011;9487;50.892;6.906;2024-01-16T01:01:44;12.30;;;8.77;;
18716;SDS011;9487;50.892;6.906;2024-01-16T01:04:11;14.60;;;8.77;;
18716;SDS011;9487;50.892;6.906;2024-01-16T01:06:37;12.07;;;7.73;;
18716;SDS011;9487;50.892;6.906;2024-01-16T01:09:04;15.47;;;8.37;;
18716;SDS011;9487;50.892;6.906;2024-01-16T01:11:33;11.77;;;8.67;;
18716;SDS011;9487;50.892;6.906;2024-01-16T01:14:00;13.10;;;7.47;;
18716;SDS011;9487;50.892;6.906;2024-01-16T01:16:27;9.67;;;6.83;;
18716;SDS011;9487;50.892;6.906;2024-01-16T01:18:53;12.47;;;7.57;;
18716;SDS011;9487;50.892;6.906;2024-01-16T01:21:20;12.57;;;7.57;;
18716;SDS011;9487;50.892;6.906;2024-01-16T01:23:47;13.00;;;7.83;;
18716;SDS011;9487;50.892;6.906;2024-01-16T01:26:14;13.07;;;7.77;;
18716;SDS011;9487;50.892;6.906;2024-01-16T01:28:44;15.77;;;7.47;;
18716;SDS011;9487;50.892;6.906;2024-01-16T01:31:11;12.67;;;6.67;;
18716;SDS011;9487;50.892;6.906;2024-01-16T01:33:38;10.40;;;6.73;;
18716;SDS011;9487;50.892;6.906;2024-01-16T01:36:07;12.37;;;6.50;;
18716;SDS011;9487;50.892;6.906;2024-01-16T01:38:35;10.10;;;5.80;;
18716;SDS011;9487;50.892;6.906;2024-01-16T01:41:01;10.83;;;6.53;;
18716;SDS011;9487;50.892;6.906;2024-01-16T01:43:29;9.00;;;6.20;;
18716;SDS011;9487;50.892;6.906;2024-01-16T01:46:10;13.47;;;6.70;;
18716;SDS011;9487;50.892;6.906;2024-01-16T01:48:39;11.33;;;6.27;;
18716;SDS011;9487;50.892;6.906;2024-01-16T01:51:07;12.30;;;7.30;;
18716;SDS011;9487;50.892;6.906;2024-01-16T01:53:34;12.50;;;7.67;;
18716;SDS011;9487;50.892;6.906;2024-01-16T01:56:03;14.47;;;8.07;;
18716;SDS011;9487;50.892;6.906;2024-01-16T01:58:33;13.73;;;8.40;;
18716;SDS011;9487;50.892;6.906;2024-01-16T02:01:00;13.23;;;8.60;;
18716;SDS011;9487;50.892;6.906;2024-01-16T02:03:30;14.40;;;9.47;;
18716;SDS011;9487;50.892;6.906;2024-01-16T02:06:01;14.03;;;9.53;;
18716;SDS011;9487;50.892;6.906;2024-01-16T02:08:28;16.50;;;9.30;;
18716;SDS011;9487;50.892;6.906;2024-01-16T02:10:55;11.87;;;8.50;;
18716;SDS011;9487;50.892;6.906;2024-01-16T02:13:22;13.03;;;9.30;;
18716;SDS011;9487;50.892;6.906;2024-01-16T02:15:49;14.47;;;8.63;;
18716;SDS011;9487;50.892;6.906;2024-01-16T02:18:16;14.83;;;8.23;;
18716;SDS011;9487;50.892;6.906;2024-01-16T02:20:44;15.40;;;7.57;;
18716;SDS011;9487;50.892;6.906;2024-01-16T02:23:13;14.00;;;8.47;;
18716;SDS011;9487;50.892;6.906;2024-01-16T02:25:42;12.43;;;7.73;;
18716;SDS011;9487;50.892;6.906;2024-01-16T02:28:10;12.80;;;7.70;;
18716;SDS011;9487;50.892;6.906;2024-01-16T02:30:37;10.87;;;7.20;;
18716;SDS011;9487;50.892;6.906;2024-01-16T02:33:03;16.40;;;7.20;;
18716;SDS011;9487;50.892;6.906;2024-01-16T02:35:31;9.73;;;7.60;;
18716;SDS011;9487;50.892;6.906;2024-01-16T02:37:57;15.47;;;7.17;;
18716;SDS011;9487;50.892;6.906;2024-01-16T02:40:25;14.17;;;8.43;;
18716;SDS011;9487;50.892;6.906;2024-01-16T02:42:54;17.40;;;7.60;;
18716;SDS011;9487;50.892;6.906;2024-01-16T02:45:21;13.10;;;7.57;;
18716;SDS011;9487;50.892;6.906;2024-01-16T02:47:48;10.03;;;7.53;;
18716;SDS011;9487;50.892;6.906;2024-01-16T02:50:15;13.13;;;6.97;;
18716;SDS011;9487;50.892;6.906;2024-01-16T02:52:42;16.10;;;6.83;;
18716;SDS011;9487;50.892;6.906;2024-01-16T02:55:09;14.00;;;6.90;;
18716;SDS011;9487;50.892;6.906;2024-01-16T02:57:35;12.37;;;7.00;;
18716;SDS011;9487;50.892;6.906;2024-01-16T03:00:04;15.50;;;8.63;;
18716;SDS011;9487;50.892;6.906;2024-01-16T03:02:33;12.10;;;7.27;;
18716;SDS011;9487;50.892;6.906;2024-01-16T03:05:00;11.83;;;7.97;;
18716;SDS011;9487;50.892;6.906;2024-01-16T03:07:30;13.60;;;7.90;;
18716;SDS011;9487;50.892;6.906;2024-01-16T03:09:56;13.23;;;7.80;;
18716;SDS011;9487;50.892;6.906;2024-01-16T03:12:23;15.10;;;8.83;;
18716;SDS011;9487;50.892;6.906;2024-01-16T03:14:50;15.80;;;8.27;;
18716;SDS011;9487;50.892;6.906;2024-01-16T03:17:19;16.07;;;9.10;;
18716;SDS011;9487;50.892;6.906;2024-01-16T03:19:46;14.90;;;8.67;;
18716;SDS011;9487;50.892;6.906;2024-01-16T03:22:13;16.17;;;9.40;;
18716;SDS011;9487;50.892;6.906;2024-01-16T03:24:40;12.67;;;9.10;;
18716;SDS011;9487;50.892;6.906;2024-01-16T03:27:07;16.67;;;8.40;;
18716;SDS011;9487;50.892;6.906;2024-01-16T03:29:33;17.40;;;8.73;;
18716;SDS011;9487;50.892;6.906;2024-01-16T03:32:00;13.77;;;7.43;;
18716;SDS011;9487;50.892;6.906;2024-01-16T03:34:29;14.27;;;7.97;;
18716;SDS011;9487;50.892;6.906;2024-01-16T03:36:56;10.20;;;7.50;;
18716;SDS011;9487;50.892;6.906;2024-01-16T03:39:23;21.20;;;9.47;;
18716;SDS011;9487;50.892;6.906;2024-01-16T03:41:50;13.53;;;8.43;;
18716;SDS011;9487;50.892;6.906;2024-01-16T03:44:17;16.33;;;7.67;;
18716;SDS011;9487;50.892;6.906;2024-01-16T03:46:44;14.70;;;9.13;;
18716;SDS011;9487;50.892;6.906;2024-01-16T03:49:10;12.17;;;7.83;;
18716;SDS011;9487;50.892;6.906;2024-01-16T03:51:39;13.03;;;8.53;;
18716;SDS011;9487;50.892;6.906;2024-01-16T03:54:07;12.73;;;8.70;;
18716;SDS011;9487;50.892;6.906;2024-01-16T03:56:34;14.27;;;9.27;;
18716;SDS011;9487;50.892;6.906;2024-01-16T03:59:01;15.57;;;9.27;;
18716;SDS011;9487;50.892;6.906;2024-01-16T04:01:31;16.87;;;9.97;;
18716;SDS011;9487;50.892;6.906;2024-01-16T04:03:58;15.77;;;9.20;;
18716;SDS011;9487;50.892;6.906;2024-01-16T04:06:25;13.13;;;9.97;;
18716;SDS011;9487;50.892;6.906;2024-01-16T04:08:55;16.57;;;9.77;;
18716;SDS011;9487;50.892;6.906;2024-01-16T04:11:22;15.93;;;10.50;;
18716;SDS011;9487;50.892;6.906;2024-01-16T04:13:49;12.10;;;9.50;;
18716;SDS011;9487;50.892;6.906;2024-01-16T04:16:16;13.60;;;9.17;;
18716;SDS011;9487;50.892;6.906;2024-01-16T04:18:43;16.80;;;9.73;;
18716;SDS011;9487;50.892;6.906;2024-01-16T04:21:10;17.03;;;9.70;;
18716;SDS011;9487;50.892;6.906;2024-01-16T04:23:37;18.07;;;9.70;;
18716;SDS011;9487;50.892;6.906;2024-01-16T04:26:05;14.27;;;9.13;;
18716;SDS011;9487;50.892;6.906;2024-01-16T04:28:32;18.50;;;8.13;;
18716;SDS011;9487;50.892;6.906;2024-01-16T04:30:59;15.97;;;8.90;;
18716;SDS011;9487;50.892;6.906;2024-01-16T04:33:26;18.47;;;8.87;;
18716;SDS011;9487;50.892;6.906;2024-01-16T04:35:54;13.97;;;8.90;;
18716;SDS011;9487;50.892;6.906;2024-01-16T04:38:21;16.90;;;8.73;;
18716;SDS011;9487;50.892;6.906;2024-01-16T04:40:48;13.93;;;8.37;;
18716;SDS011;9487;50.892;6.906;2024-01-16T04:43:17;15.67;;;7.57;;
18716;SDS011;9487;50.892;6.906;2024-01-16T04:45:43;14.63;;;8.03;;
18716;SDS011;9487;50.892;6.906;2024-01-16T04:48:11;14.27;;;7.60;;
18716;SDS011;9487;50.892;6.906;2024-01-16T04:50:38;12.23;;;8.17;;
18716;SDS011;9487;50.892;6.906;2024-01-16T04:53:06;14.03;;;8.33;;
18716;SDS011;9487;50.892;6.906;2024-01-16T04:55:32;13.93;;;7.93;;
18716;SDS011;9487;50.892;6.906;2024-01-16T04:57:59;17.40;;;8.00;;
18716;SDS011;9487;50.892;6.906;2024-01-16T05:00:27;12.43;;;7.40;;
18716;SDS011;9487;50.892;6.906;2024-01-16T05:02:54;15.30;;;7.83;;
18716;SDS011;9487;50.892;6.906;2024-01-16T05:05:21;14.80;;;8.13;;
18716;SDS011;9487;50.892;6.906;2024-01-16T05:07:47;12.97;;;8.03;;
18716;SDS011;9487;50.892;6.906;2024-01-16T05:10:14;12.23;;;8.43;;
18716;SDS011;9487;50.892;6.906;2024-01-16T05:12:41;14.30;;;8.77;;
18716;SDS011;9487;50.892;6.906;2024-01-16T05:15:08;14.03;;;9.17;;
18716;SDS011;9487;50.892;6.906;2024-01-16T05:17:39;14.03;;;8.83;;
18716;SDS011;9487;50.892;6.906;2024-01-16T05:20:06;12.30;;;8.57;;
18716;SDS011;9487;50.892;6.906;2024-01-16T05:22:35;12.87;;;8.03;;
18716;SDS011;9487;50.892;6.906;2024-01-16T05:25:03;15.33;;;8.27;;
18716;SDS011;9487;50.892;6.906;2024-01-16T05:27:32;13.97;;;7.53;;
18716;SDS011;9487;50.892;6.906;2024-01-16T05:29:58;17.20;;;7.67;;
18716;SDS011;9487;50.892;6.906;2024-01-16T05:32:25;12.70;;;6.80;;
18716;SDS011;9487;50.892;6.906;2024-01-16T05:34:54;12.70;;;7.43;;
18716;SDS011;9487;50.892;6.906;2024-01-16T05:37:21;11.93;;;7.17;;
18716;SDS011;9487;50.892;6.906;2024-01-16T05:39:47;11.87;;;7.20;;
18716;SDS011;9487;50.892;6.906;2024-01-16T05:42:14;14.70;;;6.83;;
18716;SDS011;9487;50.892;6.906;2024-01-16T05:44:41;10.27;;;6.77;;
18716;SDS011;9487;50.892;6.906;2024-01-16T05:47:08;10.90;;;6.60;;
18716;SDS011;9487;50.892;6.906;2024-01-16T05:49:35;11.97;;;6.53;;
18716;SDS011;9487;50.892;6.906;2024-01-16T05:52:03;13.97;;;6.73;;
18716;SDS011;9487;50.892;6.906;2024-01-16T05:54:30;14.47;;;6.70;;
18716;SDS011;9487;50.892;6.906;2024-01-16T05:56:57;12.13;;;7.03;;
18716;SDS011;9487;50.892;6.906;2024-01-16T05:59:24;11.47;;;5.83;;
18716;SDS011;9487;50.892;6.906;2024-01-16T06:01:51;11.83;;;5.90;;
18716;SDS011;9487;50.892;6.906;2024-01-16T06:04:17;12.57;;;7.73;;
18716;SDS011;9487;50.892;6.906;2024-01-16T06:06:44;12.93;;;6.80;;
18716;SDS011;9487;50.892;6.906;2024-01-16T06:09:14;10.23;;;5.80;;
18716;SDS011;9487;50.892;6.906;2024-01-16T06:11:41;13.30;;;6.87;;
18716;SDS011;9487;50.892;6.906;2024-01-16T06:14:08;14.30;;;6.43;;
18716;SDS011;9487;50.892;6.906;2024-01-16T06:16:37;10.30;;;5.67;;
18716;SDS011;9487;50.892;6.906;2024-01-16T06:19:04;13.07;;;6.33;;
18716;SDS011;9487;50.892;6.906;2024-01-16T06:21:30;11.27;;;5.47;;
18716;SDS011;9487;50.892;6.906;2024-01-16T06:23:57;12.30;;;6.50;;
18716;SDS011;9487;50.892;6.906;2024-01-16T06:26:26;18.03;;;6.27;;
18716;SDS011;9487;50.892;6.906;2024-01-16T06:28:52;9.30;;;5.33;;
18716;SDS011;9487;50.892;6.906;2024-01-16T06:31:19;10.80;;;6.43;;
18716;SDS011;9487;50.892;6.906;2024-01-16T06:33:46;12.60;;;5.83;;
18716;SDS011;9487;50.892;6.906;2024-01-16T06:36:13;11.37;;;5.60;;
18716;SDS011;9487;50.892;6.906;2024-01-16T06:38:40;9.57;;;5.10;;
18716;SDS011;9487;50.892;6.906;2024-01-16T06:41:07;10.77;;;5.40;;
18716;SDS011;9487;50.892;6.906;2024-01-16T06:43:35;11.33;;;5.00;;
18716;SDS011;9487;50.892;6.906;2024-01-16T06:46:01;11.63;;;5.20;;
18716;SDS011;9487;50.892;6.906;2024-01-16T06:48:28;11.27;;;5.73;;
18716;SDS011;9487;50.892;6.906;2024-01-16T06:50:55;13.67;;;4.50;;
18716;SDS011;9487;50.892;6.906;2024-01-16T06:53:22;9.63;;;4.87;;
18716;SDS011;9487;50.892;6.906;2024-01-16T06:55:49;10.93;;;4.73;;
18716;SDS011;9487;50.892;6.906;2024-01-16T06:58:16;10.47;;;4.40;;
18716;SDS011;9487;50.892;6.906;2024-01-16T07:00:44;10.30;;;4.30;;
18716;SDS011;9487;50.892;6.906;2024-01-16T07:03:12;17.70;;;4.77;;
18716;SDS011;9487;50.892;6.906;2024-01-16T07:05:39;11.87;;;4.77;;
18716;SDS011;9487;50.892;6.906;2024-01-16T07:08:06;7.40;;;3.97;;
18716;SDS011;9487;50.892;6.906;2024-01-16T07:10:33;7.90;;;3.93;;
18716;SDS011;9487;50.892;6.906;2024-01-16T07:13:00;9.57;;;4.30;;
18716;SDS011;9487;50.892;6.906;2024-01-16T07:15:27;7.40;;;3.60;;
18716;SDS011;9487;50.892;6.906;2024-01-16T07:17:55;9.43;;;3.97;;
18716;SDS011;9487;50.892;6.906;2024-01-16T07:20:22;13.37;;;5.70;;
18716;SDS011;9487;50.892;6.906;2024-01-16T07:22:49;13.13;;;4.27;;
18716;SDS011;9487;50.892;6.906;2024-01-16T07:25:16;10.23;;;3.80;;
18716;SDS011;9487;50.892;6.906;2024-01-16T07:27:43;8.70;;;3.70;;
18716;SDS011;9487;50.892;6.906;2024-01-16T07:30:13;10.10;;;3.57;;
18716;SDS011;9487;50.892;6.906;2024-01-16T07:32:41;9.80;;;3.27;;
18716;SDS011;9487;50.892;6.906;2024-01-16T07:35:09;12.33;;;4.20;;
18716;SDS011;9487;50.892;6.906;2024-01-16T07:37:36;7.90;;;3.50;;
18716;SDS011;9487;50.892;6.906;2024-01-16T07:40:03;11.07;;;3.20;;
18716;SDS011;9487;50.892;6.906;2024-01-16T07:42:32;9.63;;;3.57;;
18716;SDS011;9487;50.892;6.906;2024-01-16T07:45:00;8.87;;;3.63;;
18716;SDS011;9487;50.892;6.906;2024-01-16T07:47:29;10.23;;;4.00;;
18716;SDS011;9487;50.892;6.906;2024-01-16T07:49:56;7.87;;;3.27;;
18716;SDS011;9487;50.892;6.906;2024-01-16T07:52:24;7.77;;;3.30;;
18716;SDS011;9487;50.892;6.906;2024-01-16T07:54:51;7.40;;;3.30;;
18716;SDS011;9487;50.892;6.906;2024-01-16T07:57:17;7.27;;;3.10;;
18716;SDS011;9487;50.892;6.906;2024-01-16T07:59:44;10.73;;;4.30;;
18716;SDS011;9487;50.892;6.906;2024-01-16T08:02:11;9.53;;;3.13;;
18716;SDS011;9487;50.892;6.906;2024-01-16T08:04:38;7.50;;;3.40;;
18716;SDS011;9487;50.892;6.906;2024-01-16T08:07:05;9.40;;;3.20;;
18716;SDS011;9487;50.892;6.906;2024-01-16T08:09:33;9.53;;;3.30;;
18716;SDS011;9487;50.892;6.906;2024-01-16T08:12:00;9.40;;;3.60;;
18716;SDS011;9487;50.892;6.906;2024-01-16T08:14:27;11.13;;;3.67;;
18716;SDS011;9487;50.892;6.906;2024-01-16T08:16:55;12.67;;;3.70;;
18716;SDS011;9487;50.892;6.906;2024-01-16T08:19:21;6.90;;;3.37;;
18716;SDS011;9487;50.892;6.906;2024-01-16T08:21:48;9.00;;;3.40;;
18716;SDS011;9487;50.892;6.906;2024-01-16T08:24:15;9.03;;;2.83;;
18716;SDS011;9487;50.892;6.906;2024-01-16T08:26:43;13.53;;;3.17;;
18716;SDS011;9487;50.892;6.906;2024-01-16T08:29:10;5.97;;;2.40;;
18716;SDS011;9487;50.892;6.906;2024-01-16T08:31:36;7.90;;;3.00;;
18716;SDS011;9487;50.892;6.906;2024-01-16T08:34:03;7.00;;;2.80;;
18716;SDS011;9487;50.892;6.906;2024-01-16T08:36:30;9.30;;;3.63;;
18716;SDS011;9487;50.892;6.906;2024-01-16T08:38:57;5.77;;;2.60;;
18716;SDS011;9487;50.892;6.906;2024-01-16T08:41:24;10.37;;;3.00;;
18716;SDS011;9487;50.892;6.906;2024-01-16T08:43:53;9.37;;;2.70;;
18716;SDS011;9487;50.892;6.906;2024-01-16T08:46:19;5.73;;;3.03;;
18716;SDS011;9487;50.892;6.906;2024-01-16T08:48:47;8.83;;;2.90;;
18716;SDS011;9487;50.892;6.906;2024-01-16T08:51:14;9.53;;;2.60;;
18716;SDS011;9487;50.892;6.906;2024-01-16T08:53:41;7.07;;;2.83;;
18716;SDS011;9487;50.892;6.906;2024-01-16T08:56:08;12.50;;;3.30;;
18716;SDS011;9487;50.892;6.906;2024-01-16T08:58:37;7.43;;;2.37;;
18716;SDS011;9487;50.892;6.906;2024-01-16T09:01:06;7.90;;;3.10;;
18716;SDS011;9487;50.892;6.906;2024-01-16T09:03:33;7.60;;;2.50;;
18716;SDS011;9487;50.892;6.906;2024-01-16T09:06:01;9.77;;;3.20;;
18716;SDS011;9487;50.892;6.906;2024-01-16T09:08:28;7.97;;;3.07;;
18716;SDS011;9487;50.892;6.906;2024-01-16T09:10:55;11.57;;;3.20;;
18716;SDS011;9487;50.892;6.906;2024-01-16T09:13:23;6.97;;;2.70;;
18716;SDS011;9487;50.892;6.906;2024-01-16T09:15:49;8.47;;;2.70;;
18716;SDS011;9487;50.892;6.906;2024-01-16T09:18:18;10.07;;;2.80;;
18716;SDS011;9487;50.892;6.906;2024-01-16T09:20:45;7.87;;;2.20;;
18716;SDS011;9487;50.892;6.906;2024-01-16T09:23:11;7.47;;;2.50;;
18716;SDS011;9487;50.892;6.906;2024-01-16T09:25:39;6.30;;;2.63;;
18716;SDS011;9487;50.892;6.906;2024-01-16T09:28:06;6.43;;;2.40;;
18716;SDS011;9487;50.892;6.906;2024-01-16T09:30:33;10.37;;;2.77;;
18716;SDS011;9487;50.892;6.906;2024-01-16T09:33:00;10.60;;;3.60;;
18716;SDS011;9487;50.892;6.906;2024-01-16T09:35:30;7.77;;;3.17;;
18716;SDS011;9487;50.892;6.906;2024-01-16T09:37:57;11.77;;;3.43;;
18716;SDS011;9487;50.892;6.906;2024-01-16T09:40:24;7.30;;;3.10;;
18716;SDS011;9487;50.892;6.906;2024-01-16T09:42:51;6.33;;;3.20;;
18716;SDS011;9487;50.892;6.906;2024-01-16T09:45:21;8.47;;;2.87;;
18716;SDS011;9487;50.892;6.906;2024-01-16T09:47:48;6.67;;;2.87;;
18716;SDS011;9487;50.892;6.906;2024-01-16T09:50:16;7.30;;;2.87;;
18716;SDS011;9487;50.892;6.906;2024-01-16T09:52:46;12.03;;;4.30;;
18716;SDS011;9487;50.892;6.906;2024-01-16T09:55:13;13.67;;;4.07;;
18716;SDS011;9487;50.892;6.906;2024-01-16T09:57:40;10.93;;;4.57;;
18716;SDS011;9487;50.892;6.906;2024-01-16T10:00:11;12.13;;;3.70;;
18716;SDS011;9487;50.892;6.906;2024-01-16T10:02:39;9.10;;;3.30;;
18716;SDS011;9487;50.892;6.906;2024-01-16T10:05:06;11.07;;;4.00;;
18716;SDS011;9487;50.892;6.906;2024-01-16T10:07:34;9.70;;;4.03;;
18716;SDS011;9487;50.892;6.906;2024-01-16T10:10:05;15.37;;;4.90;;
18716;SDS011;9487;50.892;6.906;2024-01-16T10:12:35;14.43;;;5.03;;
18716;SDS011;9487;50.892;6.906;2024-01-16T10:15:04;10.20;;;4.20;;
18716;SDS011;9487;50.892;6.906;2024-01-16T10:17:38;14.00;;;3.83;;
18716;SDS011;9487;50.892;6.906;2024-01-16T10:20:05;13.80;;;3.80;;
18716;SDS011;9487;50.892;6.906;2024-01-16T10:22:38;11.90;;;4.77;;
18716;SDS011;9487;50.892;6.906;2024-01-16T10:25:07;7.83;;;4.10;;
18716;SDS011;9487;50.892;6.906;2024-01-16T10:27:37;8.60;;;3.60;;
18716;SDS011;9487;50.892;6.906;2024-01-16T10:30:05;10.20;;;3.70;;
18716;SDS011;9487;50.892;6.906;2024-01-16T10:32:34;12.17;;;4.13;;
18716;SDS011;9487;50.892;6.906;2024-01-16T10:35:05;11.00;;;3.83;;
18716;SDS011;9487;50.892;6.906;2024-01-16T10:37:42;10.03;;;3.77;;
18716;SDS011;9487;50.892;6.906;2024-01-16T10:40:12;9.20;;;3.40;;
18716;SDS011;9487;50.892;6.906;2024-01-16T10:42:41;8.73;;;3.27;;
18716;SDS011;9487;50.892;6.906;2024-01-16T10:45:08;7.43;;;4.30;;
18716;SDS011;9487;50.892;6.906;2024-01-16T10:47:42;10.70;;;3.90;;
18716;SDS011;9487;50.892;6.906;2024-01-16T10:50:09;9.27;;;3.70;;
18716;SDS011;9487;50.892;6.906;2024-01-16T10:52:36;9.97;;;4.30;;
18716;SDS011;9487;50.892;6.906;2024-01-16T10:55:13;10.63;;;3.93;;
18716;SDS011;9487;50.892;6.906;2024-01-16T10:57:46;13.77;;;3.80;;
18716;SDS011;9487;50.892;6.906;2024-01-16T11:00:14;10.27;;;3.67;;
18716;SDS011;9487;50.892;6.906;2024-01-16T11:02:49;14.20;;;4.37;;
18716;SDS011;9487;50.892;6.906;2024-01-16T11:05:20;12.00;;;3.93;;
18716;SDS011;9487;50.892;6.906;2024-01-16T11:07:48;12.77;;;4.23;;
18716;SDS011;9487;50.892;6.906;2024-01-16T11:10:18;10.40;;;4.17;;
18716;SDS011;9487;50.892;6.906;2024-01-16T11:12:45;12.50;;;4.43;;
18716;SDS011;9487;50.892;6.906;2024-01-16T11:15:14;11.97;;;4.17;;
18716;SDS011;9487;50.892;6.906;2024-01-16T11:17:40;12.87;;;4.00;;
18716;SDS011;9487;50.892;6.906;2024-01-16T11:20:10;10.93;;;3.97;;
18716;SDS011;9487;50.892;6.906;2024-01-16T11:22:39;7.50;;;3.43;;
18716;SDS011;9487;50.892;6.906;2024-01-16T11:25:08;8.67;;;3.93;;
18716;SDS011;9487;50.892;6.906;2024-01-16T11:27:37;8.27;;;4.07;;
18716;SDS011;9487;50.892;6.906;2024-01-16T11:30:05;5.93;;;3.07;;
18716;SDS011;9487;50.892;6.906;2024-01-16T11:32:33;9.87;;;3.90;;
18716;SDS011;9487;50.892;6.906;2024-01-16T11:35:02;7.33;;;3.47;;
18716;SDS011;9487;50.892;6.906;2024-01-16T11:37:29;6.07;;;2.90;;
18716;SDS011;9487;50.892;6.906;2024-01-16T11:42:52;7.33;;;2.73;;
18716;SDS011;9487;50.892;6.906;2024-01-16T11:48:19;5.17;;;2.50;;
18716;SDS011;9487;50.892;6.906;2024-01-16T11:50:46;9.77;;;2.70;;
18716;SDS011;9487;50.892;6.906;2024-01-16T11:53:31;11.20;;;2.47;;
18716;SDS011;9487;50.892;6.906;2024-01-16T11:59:32;5.60;;;2.40;;
18716;SDS011;9487;50.892;6.906;2024-01-16T12:02:26;5.87;;;2.67;;
18716;SDS011;9487;50.892;6.906;2024-01-16T12:05:00;5.93;;;2.40;;
18716;SDS011;9487;50.892;6.906;2024-01-16T12:07:41;5.80;;;2.20;;
18716;SDS011;9487;50.892;6.906;2024-01-16T12:10:08;6.33;;;2.70;;
18716;SDS011;9487;50.892;6.906;2024-01-16T12:12:35;7.13;;;2.73;;
18716;SDS011;9487;50.892;6.906;2024-01-16T12:15:04;4.43;;;2.40;;
18716;SDS011;9487;50.892;6.906;2024-01-16T12:17:31;6.73;;;2.90;;
18716;SDS011;9487;50.892;6.906;2024-01-16T12:19:58;5.30;;;3.13;;
18716;SDS011;9487;50.892;6.906;2024-01-16T12:22:25;7.07;;;2.93;;
18716;SDS011;9487;50.892;6.906;2024-01-16T12:24:55;7.53;;;3.10;;
18716;SDS011;9487;50.892;6.906;2024-01-16T12:27:23;8.13;;;2.80;;
18716;SDS011;9487;50.892;6.906;2024-01-16T12:30:05;6.57;;;2.70;;
18716;SDS011;9487;50.892;6.906;2024-01-16T12:32:33;6.77;;;3.20;;
18716;SDS011;9487;50.892;6.906;2024-01-16T12:35:00;11.30;;;3.87;;
18716;SDS011;9487;50.892;6.906;2024-01-16T12:37:27;6.37;;;3.07;;
18716;SDS011;9487;50.892;6.906;2024-01-16T12:39:54;6.40;;;3.43;;
18716;SDS011;9487;50.892;6.906;2024-01-16T12:42:22;5.67;;;3.60;;
18716;SDS011;9487;50.892;6.906;2024-01-16T12:44:50;8.90;;;4.97;;
18716;SDS011;9487;50.892;6.906;2024-01-16T12:47:18;9.33;;;3.47;;
18716;SDS011;9487;50.892;6.906;2024-01-16T12:49:46;8.83;;;3.50;;
18716;SDS011;9487;50.892;6.906;2024-01-16T12:52:17;8.27;;;3.80;;
18716;SDS011;9487;50.892;6.906;2024-01-16T12:54:45;8.70;;;3.83;;
18716;SDS011;9487;50.892;6.906;2024-01-16T12:57:16;6.23;;;3.57;;
18716;SDS011;9487;50.892;6.906;2024-01-16T12:59:44;8.53;;;3.80;;
18716;SDS011;9487;50.892;6.906;2024-01-16T13:02:20;7.50;;;3.10;;
18716;SDS011;9487;50.892;6.906;2024-01-16T13:04:48;10.77;;;4.07;;
18716;SDS011;9487;50.892;6.906;2024-01-16T13:07:22;9.20;;;3.27;;
18716;SDS011;9487;50.892;6.906;2024-01-16T13:09:48;9.00;;;3.33;;
18716;SDS011;9487;50.892;6.906;2024-01-16T13:12:19;10.53;;;3.80;;
18716;SDS011;9487;50.892;6.906;2024-01-16T13:14:46;8.63;;;4.33;;
18716;SDS011;9487;50.892;6.906;2024-01-16T13:17:13;10.10;;;4.40;;
18716;SDS011;9487;50.892;6.906;2024-01-16T13:19:41;7.53;;;4.60;;
18716;SDS011;9487;50.892;6.906;2024-01-16T13:22:08;5.50;;;4.10;;
18716;SDS011;9487;50.892;6.906;2024-01-16T13:24:35;6.97;;;3.80;;
18716;SDS011;9487;50.892;6.906;2024-01-16T13:27:02;8.67;;;4.50;;
18716;SDS011;9487;50.892;6.906;2024-01-16T13:29:31;9.10;;;3.87;;
18716;SDS011;9487;50.892;6.906;2024-01-16T13:32:00;8.33;;;3.77;;
18716;SDS011;9487;50.892;6.906;2024-01-16T13:34:27;8.10;;;3.90;;
18716;SDS011;9487;50.892;6.906;2024-01-16T13:36:55;8.87;;;4.93;;
18716;SDS011;9487;50.892;6.906;2024-01-16T13:39:24;9.30;;;3.50;;
18716;SDS011;9487;50.892;6.906;2024-01-16T13:41:51;7.90;;;4.17;;
18716;SDS011;9487;50.892;6.906;2024-01-16T13:44:18;7.80;;;3.70;;
18716;SDS011;9487;50.892;6.906;2024-01-16T13:46:45;7.90;;;4.00;;
18716;SDS011;9487;50.892;6.906;2024-01-16T13:49:12;8.53;;;3.87;;
18716;SDS011;9487;50.892;6.906;2024-01-16T13:51:38;9.50;;;4.20;;
18716;SDS011;9487;50.892;6.906;2024-01-16T13:54:07;7.27;;;4.10;;
18716;SDS011;9487;50.892;6.906;2024-01-16T13:56:33;10.43;;;4.30;;
18716;SDS011;9487;50.892;6.906;2024-01-16T13:59:00;9.43;;;3.80;;
18716;SDS011;9487;50.892;6.906;2024-01-16T14:01:27;7.33;;;3.57;;
18716;SDS011;9487;50.892;6.906;2024-01-16T14:03:54;7.90;;;4.00;;
18716;SDS011;9487;50.892;6.906;2024-01-16T14:06:21;10.57;;;4.10;;
18716;SDS011;9487;50.892;6.906;2024-01-16T14:08:47;6.67;;;2.97;;
18716;SDS011;9487;50.892;6.906;2024-01-16T14:11:16;11.57;;;3.90;;
18716;SDS011;9487;50.892;6.906;2024-01-16T14:13:42;7.60;;;3.87;;
18716;SDS011;9487;50.892;6.906;2024-01-16T14:16:09;7.77;;;3.33;;
18716;SDS011;9487;50.892;6.906;2024-01-16T14:18:36;7.20;;;4.00;;
18716;SDS011;9487;50.892;6.906;2024-01-16T14:21:03;7.70;;;3.70;;
18716;SDS011;9487;50.892;6.906;2024-01-16T14:23:30;7.53;;;3.73;;
18716;SDS011;9487;50.892;6.906;2024-01-16T14:25:57;8.30;;;4.03;;
18716;SDS011;9487;50.892;6.906;2024-01-16T14:28:25;7.00;;;3.60;;
18716;SDS011;9487;50.892;6.906;2024-01-16T14:30:52;7.17;;;3.40;;
18716;SDS011;9487;50.892;6.906;2024-01-16T14:33:19;5.83;;;3.50;;
18716;SDS011;9487;50.892;6.906;2024-01-16T14:35:45;10.80;;;3.90;;
18716;SDS011;9487;50.892;6.906;2024-01-16T14:38:12;6.67;;;4.03;;
18716;SDS011;9487;50.892;6.906;2024-01-16T14:40:39;8.13;;;3.77;;
18716;SDS011;9487;50.892;6.906;2024-01-16T14:43:06;8.27;;;4.00;;
18716;SDS011;9487;50.892;6.906;2024-01-16T14:45:35;9.50;;;3.87;;
18716;SDS011;9487;50.892;6.906;2024-01-16T14:48:02;9.07;;;4.70;;
18716;SDS011;9487;50.892;6.906;2024-01-16T14:50:30;7.10;;;4.40;;
18716;SDS011;9487;50.892;6.906;2024-01-16T14:52:57;10.87;;;4.77;;
18716;SDS011;9487;50.892;6.906;2024-01-16T14:55:24;7.77;;;4.20;;
18716;SDS011;9487;50.892;6.906;2024-01-16T14:57:51;6.80;;;4.17;;
18716;SDS011;9487;50.892;6.906;2024-01-16T15:00:24;7.90;;;4.57;;
18716;SDS011;9487;50.892;6.906;2024-01-16T15:02:53;9.03;;;4.57;;
18716;SDS011;9487;50.892;6.906;2024-01-16T15:05:22;10.17;;;4.63;;